Time;durP1;ratioP1;P1;durP2;ratioP2;P2;SDS_P1;SDS_P2;PMS_P1;PMS_P2;Temp;Humidity;BMP_temperature;BMP_pressure;BME280_temperature;BME280_humidity;BME280_pressure;Samples;Min_cycle;Max_cycle;Signal;HPM_P1;HPM_P2
2022/01/26 00:00:29;;;;;;;113.72;37.92;;;;;;;3.69;72.87;103257.84;5004044;28;20100;-90
2022/01/26 00:05:51;;;;;;;102.05;36.80;;;;;;;3.72;73.05;103266.66;5081215;28;20117;-90
2022/01/26 00:08:19;;;;;;;113.75;38.60;;;;;;;3.74;72.27;103277.16;5082554;28;20024;-91
2022/01/26 00:10:44;;;;;;;104.80;35.05;;;;;;;3.73;72.34;103270.13;5079242;28;20028;-90
2022/01/26 00:13:10;;;;;;;106.43;36.05;;;;;;;3.73;72.24;103270.13;5081610;28;20028;-90
2022/01/26 00:15:35;;;;;;;99.47;36.30;;;;;;;3.74;72.40;103279.78;5081610;28;20055;-90
2022/01/26 00:18:00;;;;;;;100.03;34.28;;;;;;;3.72;72.11;103277.09;5085702;28;20032;-90
2022/01/26 00:23:47;;;;;;;101.20;29.77;;;;;;;3.75;72.15;103281.56;5061992;28;20494;-89
2022/01/26 00:26:12;;;;;;;107.82;36.22;;;;;;;3.73;72.11;103278.91;5071452;28;20279;-89
2022/01/26 00:38:32;;;;;;;112.75;37.78;;;;;;;3.80;71.53;103265.13;5078415;28;20050;-89
2022/01/26 00:40:13;;;;;;;106.70;35.45;;;;;;;3.75;73.09;103256.28;5086497;28;20047;-90
2022/01/26 00:42:40;;;;;;;121.50;37.40;;;;;;;3.76;72.27;103257.16;5072194;28;20063;-89
2022/01/26 00:45:07;;;;;;;120.85;37.78;;;;;;;3.70;72.35;103247.41;5073610;28;20537;-90
2022/01/26 00:47:33;;;;;;;107.05;37.05;;;;;;;3.73;72.44;103254.44;5071223;28;20032;-90
2022/01/26 00:50:03;;;;;;;101.97;35.42;;;;;;;3.74;72.85;103262.34;5073202;28;20016;-90
2022/01/26 00:52:39;;;;;;;109.95;36.67;;;;;;;3.73;73.22;103264.91;5069800;28;20435;-89
2022/01/26 00:55:07;;;;;;;116.22;40.10;;;;;;;3.67;73.11;103255.16;5080902;28;20024;-89
2022/01/26 00:57:33;;;;;;;112.90;37.40;;;;;;;3.60;73.26;103241.91;5076678;28;20032;-89
2022/01/26 00:59:59;;;;;;;110.63;36.92;;;;;;;3.72;73.22;103268.38;5080398;28;20089;-90
2022/01/26 01:02:25;;;;;;;107.30;35.15;;;;;;;3.67;73.13;103254.28;5082314;28;20027;-90
2022/01/26 01:04:50;;;;;;;116.70;38.88;;;;;;;3.67;72.81;103256.91;5069139;28;20035;-90
2022/01/26 01:07:19;;;;;;;116.78;38.53;;;;;;;3.54;72.88;103239.97;5077794;28;20026;-89
2022/01/26 01:09:46;;;;;;;100.32;35.25;;;;;;;3.68;73.35;103264.78;5075586;28;20537;-90
2022/01/26 01:12:11;;;;;;;109.85;37.20;;;;;;;3.62;72.92;103254.16;5079587;28;20106;-89
2022/01/26 01:14:39;;;;;;;111.72;36.70;;;;;;;3.63;73.09;103252.44;5080018;28;20588;-90
2022/01/26 01:17:06;;;;;;;109.65;37.65;;;;;;;3.65;73.30;103263.84;5078353;28;20034;-90
2022/01/26 01:19:55;;;;;;;110.43;35.60;;;;;;;3.63;73.26;103248.09;5081420;28;20020;-89
2022/01/26 01:32:52;;;;;;;110.18;36.15;;;;;;;3.65;72.56;103235.06;5070491;28;20082;-89
2022/01/26 01:35:19;;;;;;;116.82;39.05;;;;;;;3.67;72.81;103238.59;5067718;28;20027;-90
2022/01/26 01:37:44;;;;;;;120.50;38.30;;;;;;;3.60;72.48;103226.22;5068481;28;20024;-90
2022/01/26 01:40:10;;;;;;;113.43;38.45;;;;;;;3.57;73.29;103214.81;5067842;28;20074;-90
2022/01/26 01:42:36;;;;;;;122.00;39.15;;;;;;;3.60;73.28;103218.38;5076350;28;20152;-90
2022/01/26 01:45:01;;;;;;;110.05;35.42;;;;;;;3.52;73.44;103215.53;5074905;28;20135;-89
2022/01/26 01:47:27;;;;;;;113.68;38.85;;;;;;;3.60;74.14;103228.81;5077191;28;20040;-90
2022/01/26 01:49:53;;;;;;;103.00;35.10;;;;;;;3.52;73.33;103226.88;5072682;28;20111;-90
2022/01/26 01:52:18;;;;;;;105.60;35.47;;;;;;;3.61;73.66;103234.09;5074144;28;20146;-90
2022/01/26 01:54:50;;;;;;;113.18;38.67;;;;;;;3.54;72.88;103219.06;5081662;28;20282;-90
2022/01/26 01:57:22;;;;;;;109.25;37.10;;;;;;;3.57;72.65;103233.13;5082329;28;20066;-89
2022/01/26 01:59:47;;;;;;;110.07;35.97;;;;;;;3.52;73.06;103223.38;5080854;28;20028;-90
2022/01/26 02:02:13;;;;;;;109.32;35.22;;;;;;;3.48;73.36;103217.16;5084384;28;20046;-89
2022/01/26 02:04:38;;;;;;;109.20;37.25;;;;;;;3.47;72.89;103220.63;5085339;28;20425;-89
2022/01/26 02:07:03;;;;;;;112.07;36.25;;;;;;;3.48;73.80;103227.63;5078952;28;20036;-90
2022/01/26 02:09:29;;;;;;;103.95;36.40;;;;;;;3.41;72.58;103210.03;5085228;28;20484;-90
2022/01/26 02:11:56;;;;;;;115.28;37.13;;;;;;;3.44;72.59;103212.69;5082221;28;20020;-90
2022/01/26 02:14:30;;;;;;;98.03;31.00;;;;;;;3.49;72.39;103216.31;5079088;28;20031;-89
2022/01/26 02:52:49;;;;;;;123.50;37.75;;;;;;;3.32;72.93;103175.78;5080832;28;20028;-89
2022/01/26 02:55:24;;;;;;;112.03;34.88;;;;;;;3.34;73.01;103166.22;5083917;28;20407;-89
2022/01/26 03:00:26;;;;;;;114.38;35.13;;;;;;;3.40;73.03;103160.28;5081414;28;20072;-89
2022/01/26 03:02:56;;;;;;;115.07;38.58;;;;;;;3.30;73.06;103153.91;5077586;28;20029;-90
2022/01/26 03:05:27;;;;;;;118.85;37.72;;;;;;;3.29;73.45;103139.97;5068485;28;20055;-90
2022/01/26 03:08:01;;;;;;;114.40;35.20;;;;;;;3.31;73.17;103155.69;5086609;28;20028;-89
2022/01/26 03:13:00;;;;;;;117.93;37.47;;;;;;;3.40;74.26;103170.72;5075944;28;20042;-90
2022/01/26 03:15:32;;;;;;;119.43;38.63;;;;;;;3.40;73.37;103144.59;5071800;28;20035;-90
2022/01/26 03:20:44;;;;;;;118.03;36.33;;;;;;;3.29;74.86;103152.16;5075180;28;20082;-89
2022/01/26 03:29:10;;;;;;;108.43;36.08;;;;;;;3.23;73.51;103152.00;5078914;28;20104;-89
2022/01/26 03:34:16;;;;;;;111.95;33.33;;;;;;;3.25;74.19;103168.59;5076804;28;20039;-89
2022/01/26 03:39:16;;;;;;;112.33;36.37;;;;;;;3.30;73.83;103157.41;5079613;28;20025;-89
2022/01/26 03:44:10;;;;;;;111.38;35.92;;;;;;;3.36;74.28;103155.81;5077267;28;20186;-89
2022/01/26 03:46:37;;;;;;;113.70;34.92;;;;;;;3.34;74.54;103158.38;5080556;28;20034;-89
2022/01/26 03:49:04;;;;;;;114.70;35.40;;;;;;;3.28;74.77;103159.13;5073851;28;20859;-90
2022/01/26 03:51:29;;;;;;;120.32;39.75;;;;;;;3.23;74.31;103152.00;5078124;28;20035;-89
2022/01/26 03:53:55;;;;;;;121.25;38.00;;;;;;;3.22;75.29;103142.41;5076031;28;20024;-90
2022/01/26 03:56:20;;;;;;;101.13;31.67;;;;;;;3.26;75.44;103149.44;5079230;28;20036;-89
2022/01/26 03:58:46;;;;;;;104.57;34.90;;;;;;;3.22;74.72;103127.59;5078401;28;20467;-89
2022/01/26 04:01:12;;;;;;;119.07;35.15;;;;;;;3.21;74.22;103145.81;5072496;28;20066;-90
2022/01/26 04:03:37;;;;;;;117.95;37.45;;;;;;;3.11;76.15;103135.97;5070539;28;20383;-89
2022/01/26 04:06:03;;;;;;;120.20;37.33;;;;;;;3.11;76.72;103142.06;5070394;28;20028;-90
2022/01/26 04:08:30;;;;;;;115.15;39.13;;;;;;;3.05;75.98;103153.25;5075803;28;20310;-89
2022/01/26 04:13:27;;;;;;;115.40;36.58;;;;;;;3.06;75.95;103152.41;5071342;28;20123;-89
2022/01/26 04:15:52;;;;;;;120.95;41.42;;;;;;;3.02;75.71;103140.09;5074447;28;20091;-89
2022/01/26 04:18:23;;;;;;;119.88;37.83;;;;;;;2.93;75.60;103128.50;5071899;28;20046;-89
2022/01/26 04:20:53;;;;;;;111.75;36.55;;;;;;;2.97;75.11;103138.19;5072566;28;20381;-89
2022/01/26 04:23:26;;;;;;;116.50;37.08;;;;;;;2.90;75.39;103125.81;5073497;28;20605;-89
2022/01/26 04:25:53;;;;;;;117.38;37.58;;;;;;;3.01;75.17;103138.31;5071716;28;20036;-88
2022/01/26 04:28:25;;;;;;;129.70;39.05;;;;;;;2.97;75.81;103149.53;5071589;28;20114;-89
2022/01/26 04:30:51;;;;;;;124.22;40.92;;;;;;;2.94;75.12;103145.97;5079245;28;20529;-90
2022/01/26 04:33:16;;;;;;;124.72;38.15;;;;;;;3.02;75.61;103163.59;5079969;28;20048;-89
2022/01/26 04:35:45;;;;;;;110.38;35.63;;;;;;;2.92;74.45;103143.28;5084054;28;20251;-89
2022/01/26 04:38:27;;;;;;;124.80;40.63;;;;;;;2.93;74.13;103145.06;5081011;28;20027;-89
2022/01/26 04:41:05;;;;;;;;;;;;;;;3.06;74.88;103160.25;5071710;28;20020;-90
2022/01/26 04:43:34;;;;;;;123.13;38.47;;;;;;;3.02;75.61;103165.34;5083451;28;19950;-89
2022/01/26 04:46:00;;;;;;;120.32;37.65;;;;;;;2.87;74.63;103159.69;5082948;28;20024;-89
2022/01/26 04:48:26;;;;;;;110.00;35.47;;;;;;;2.95;74.40;103169.53;5083943;28;20604;-89
2022/01/26 04:50:52;;;;;;;118.05;36.72;;;;;;;3.07;74.28;103177.69;5080844;28;20441;-89
2022/01/26 04:53:18;;;;;;;117.97;36.35;;;;;;;3.06;74.23;103185.50;5080553;28;20028;-89
2022/01/26 04:55:43;;;;;;;116.85;37.97;;;;;;;3.00;73.92;103180.97;5081596;28;20081;-89
2022/01/26 04:58:09;;;;;;;132.90;44.30;;;;;;;2.86;74.16;103153.56;5083826;28;20020;-89
2022/01/26 05:00:34;;;;;;;120.75;39.25;;;;;;;2.99;74.34;103170.50;5079215;28;20223;-89
2022/01/26 05:03:00;;;;;;;112.35;32.40;;;;;;;3.04;74.41;103188.06;5070320;28;20032;-89
2022/01/26 05:05:25;;;;;;;136.60;48.20;;;;;;;2.90;74.12;103178.06;5082927;28;20115;-89
2022/01/26 05:07:51;;;;;;;110.53;35.65;;;;;;;2.91;74.79;103165.03;5074612;28;20336;-89
2022/01/26 05:10:16;;;;;;;121.95;38.40;;;;;;;2.79;74.82;103146.38;5081073;28;20138;-89
2022/01/26 05:12:42;;;;;;;122.38;37.72;;;;;;;2.85;75.24;103157.03;5077585;28;20028;-89
2022/01/26 05:15:08;;;;;;;118.68;36.55;;;;;;;2.86;74.73;103173.59;5080805;28;20035;-89
2022/01/26 05:17:35;;;;;;;126.40;38.65;;;;;;;2.79;75.36;103162.06;5078254;28;20031;-89
2022/01/26 05:20:01;;;;;;;129.27;43.05;;;;;;;2.80;75.68;103163.84;5079983;28;20024;-90
2022/01/26 05:22:27;;;;;;;119.60;37.15;;;;;;;2.85;75.18;103156.16;5082835;28;20081;-89
2022/01/26 05:24:53;;;;;;;128.07;36.58;;;;;;;2.81;75.64;103129.06;5078340;28;20491;-90
2022/01/26 05:27:19;;;;;;;121.10;38.90;;;;;;;2.85;75.45;103136.13;5080675;28;20048;-90
2022/01/26 05:29:45;;;;;;;106.60;34.95;;;;;;;2.83;75.34;103122.13;5085359;28;20121;-89
2022/01/26 05:32:10;;;;;;;126.63;39.53;;;;;;;2.84;75.38;103118.66;5086191;28;20035;-89
2022/01/26 05:34:36;;;;;;;114.75;34.85;;;;;;;2.81;75.25;103122.09;5074485;28;20028;-90
2022/01/26 05:37:02;;;;;;;130.88;42.45;;;;;;;2.82;75.52;103122.97;5075345;28;20032;-89
2022/01/26 05:39:27;;;;;;;121.60;39.50;;;;;;;2.83;75.74;103129.09;5071910;28;20028;-90
2022/01/26 05:41:52;;;;;;;106.13;34.20;;;;;;;2.97;75.15;103138.19;5078994;28;20141;-89
2022/01/26 05:44:18;;;;;;;125.15;42.55;;;;;;;2.89;74.62;103134.47;5070777;28;20031;-89
2022/01/26 05:46:49;;;;;;;118.88;36.40;;;;;;;2.89;75.32;103132.78;5073590;28;20032;-89
2022/01/26 05:49:17;;;;;;;129.48;41.30;;;;;;;2.88;75.00;103130.97;5074839;28;20024;-90
2022/01/26 05:51:45;;;;;;;116.38;38.80;;;;;;;2.84;75.18;103126.50;5074155;28;20076;-89
2022/01/26 05:54:11;;;;;;;129.85;45.38;;;;;;;2.86;74.95;103145.75;5075177;28;20032;-90
2022/01/26 05:56:37;;;;;;;111.68;36.60;;;;;;;2.94;75.30;103128.56;5078080;28;20028;-89
2022/01/26 05:59:03;;;;;;;97.22;31.38;;;;;;;2.97;75.02;103130.34;5079677;28;20035;-89
2022/01/26 06:01:28;;;;;;;123.72;39.28;;;;;;;2.89;75.78;103122.31;5076507;28;20024;-90
2022/01/26 06:03:54;;;;;;;118.05;37.47;;;;;;;2.90;76.20;103116.25;5079291;28;20533;-90
2022/01/26 06:06:19;;;;;;;113.57;37.17;;;;;;;2.88;75.82;103123.13;5085360;28;20024;-89
2022/01/26 06:08:45;;;;;;;120.50;39.47;;;;;;;2.82;75.43;103104.69;5080494;28;20081;-89
2022/01/26 06:11:10;;;;;;;119.57;38.83;;;;;;;2.91;75.99;103112.78;5085067;28;20564;-89
2022/01/26 06:13:35;;;;;;;120.63;37.92;;;;;;;2.92;75.72;103114.56;5081919;28;20120;-90
2022/01/26 06:16:01;;;;;;;126.10;39.60;;;;;;;2.96;76.21;103119.03;5076087;28;20025;-89
2022/01/26 06:18:26;;;;;;;115.70;36.25;;;;;;;2.96;76.17;103128.59;5072674;28;20081;-89
2022/01/26 06:20:51;;;;;;;117.40;38.25;;;;;;;3.02;76.14;103133.97;5085958;28;20028;-90
2022/01/26 06:23:17;;;;;;;84.78;25.35;;;;;;;3.09;75.27;103130.72;5084569;28;20051;-89
2022/01/26 06:25:43;;;;;;;121.85;38.17;;;;;;;3.10;75.71;103139.44;5083469;28;20092;-89
2022/01/26 06:28:12;;;;;;;118.45;40.92;;;;;;;3.06;76.10;103126.28;5081504;28;20472;-89
2022/01/26 06:30:38;;;;;;;125.85;42.45;;;;;;;3.03;76.28;103122.69;5072326;28;20049;-89
2022/01/26 06:33:04;;;;;;;85.35;28.02;;;;;;;2.97;76.24;103118.16;5084936;28;20133;-89
2022/01/26 06:35:30;;;;;;;138.43;49.42;;;;;;;2.91;76.47;103119.75;5074284;28;20380;-90
2022/01/26 06:37:55;;;;;;;118.60;42.35;;;;;;;2.85;77.03;103110.00;5081631;28;20057;-89
2022/01/26 06:40:23;;;;;;;127.63;44.25;;;;;;;2.96;76.90;103123.38;5080724;28;21186;-89
2022/01/26 06:42:53;;;;;;;141.50;51.80;;;;;;;2.89;76.73;103129.25;5078894;28;20028;-89
2022/01/26 06:45:22;;;;;;;150.65;56.60;;;;;;;2.72;76.50;103107.88;5080266;28;20111;-90
2022/01/26 06:50:32;;;;;;;139.15;44.10;;;;;;;2.89;77.76;103127.56;5083078;28;20034;-90
2022/01/26 06:52:57;;;;;;;123.10;37.05;;;;;;;3.02;76.90;103140.09;5084980;28;20035;-89
2022/01/26 06:55:23;;;;;;;130.93;46.22;;;;;;;2.97;76.97;103135.59;5082002;28;20602;-90
2022/01/26 06:57:48;;;;;;;136.18;46.67;;;;;;;2.91;77.59;103136.31;5086275;28;20031;-90
2022/01/26 07:00:14;;;;;;;118.30;38.05;;;;;;;2.98;77.24;103122.56;5083846;28;20474;-89
2022/01/26 07:02:39;;;;;;;119.28;39.75;;;;;;;2.87;77.60;103121.38;5085898;28;20512;-89
2022/01/26 07:05:06;;;;;;;126.20;40.35;;;;;;;2.91;77.78;103124.97;5086805;28;20464;-89
2022/01/26 07:07:32;;;;;;;116.75;35.90;;;;;;;2.87;78.18;103117.88;5079923;28;20118;-89
2022/01/26 07:09:58;;;;;;;125.10;38.75;;;;;;;2.95;78.12;103132.94;5078505;28;20032;-90
2022/01/26 07:12:23;;;;;;;123.50;37.17;;;;;;;2.96;78.10;103120.75;5084026;28;20074;-90
2022/01/26 07:23:00;;;;;;;133.32;41.97;;;;;;;3.00;78.44;103144.41;5082286;28;20093;-89
2022/01/26 07:25:25;;;;;;;118.97;37.42;;;;;;;3.07;77.87;103148.94;5084331;28;20467;-89
2022/01/26 07:27:51;;;;;;;121.38;40.15;;;;;;;3.10;77.68;103173.41;5084620;28;20059;-90
2022/01/26 07:30:17;;;;;;;147.02;51.90;;;;;;;3.03;78.04;103162.78;5072472;28;20071;-90
2022/01/26 07:32:43;;;;;;;133.25;43.92;;;;;;;2.96;78.68;103134.69;5070359;28;20137;-89
2022/01/26 07:35:09;;;;;;;98.45;32.17;;;;;;;2.99;78.65;103133.91;5071460;28;20024;-89
2022/01/26 07:37:34;;;;;;;115.88;34.17;;;;;;;3.13;78.02;103143.03;5073430;28;20443;-89
2022/01/26 07:40:06;;;;;;;126.50;38.50;;;;;;;3.01;78.99;103143.56;5076902;28;20111;-90
2022/01/26 07:42:35;;;;;;;125.68;37.58;;;;;;;3.07;78.91;103146.31;5065910;28;20380;-90
2022/01/26 07:45:03;;;;;;;124.82;38.58;;;;;;;3.05;79.29;103145.41;5073336;28;20063;-89
2022/01/26 07:47:31;;;;;;;112.22;35.72;;;;;;;3.05;79.13;103140.19;5073215;28;20035;-90
2022/01/26 07:50:00;;;;;;;153.52;48.30;;;;;;;2.94;80.02;103143.34;5068031;28;20024;-90
2022/01/26 07:52:28;;;;;;;131.07;39.80;;;;;;;2.91;80.57;103138.03;5079803;28;20032;-89
2022/01/26 07:54:54;;;;;;;142.05;40.70;;;;;;;2.98;80.11;103133.00;5069242;28;20103;-89
2022/01/26 07:57:20;;;;;;;126.60;37.95;;;;;;;3.06;79.63;103134.09;5072590;28;20074;-89
2022/01/26 07:59:45;;;;;;;125.05;38.92;;;;;;;3.14;79.80;103156.97;5071998;28;20024;-90
2022/01/26 08:02:11;;;;;;;119.28;37.10;;;;;;;3.12;79.80;103169.97;5080586;28;20028;-89
2022/01/26 08:04:36;;;;;;;106.75;34.28;;;;;;;3.06;79.61;103157.63;5085678;28;20521;-89
2022/01/26 08:07:01;;;;;;;133.50;39.80;;;;;;;3.10;79.80;103170.78;5077258;28;20055;-89
2022/01/26 08:09:27;;;;;;;122.95;36.28;;;;;;;3.19;79.53;103184.13;5077401;28;20020;-90
2022/01/26 08:11:52;;;;;;;135.52;40.10;;;;;;;3.18;79.64;103162.31;5079354;28;20047;-89
2022/01/26 08:14:18;;;;;;;129.20;41.00;;;;;;;3.09;80.03;103159.47;5072180;28;20040;-89
2022/01/26 08:16:44;;;;;;;143.45;46.17;;;;;;;3.06;80.50;103162.84;5078090;28;20043;-89
2022/01/26 08:19:12;;;;;;;128.35;37.38;;;;;;;3.17;80.64;103175.34;5072094;28;20111;-90
2022/01/26 08:21:37;;;;;;;131.60;42.33;;;;;;;3.03;80.82;103172.31;5081001;28;20024;-89
2022/01/26 08:24:12;;;;;;;115.07;35.95;;;;;;;3.12;80.77;103184.78;5084940;28;20085;-90
2022/01/26 08:26:40;;;;;;;126.18;38.92;;;;;;;3.09;80.97;103176.88;5077196;28;20107;-89
2022/01/26 08:29:13;;;;;;;150.32;41.13;;;;;;;3.11;80.83;103160.38;5074779;28;20229;-89
2022/01/26 08:31:38;;;;;;;135.52;39.75;;;;;;;3.09;81.37;103159.47;5082118;28;20020;-90
2022/01/26 08:34:04;;;;;;;123.25;34.05;;;;;;;3.21;81.01;103177.19;5082875;28;20034;-90
2022/01/26 08:36:29;;;;;;;120.60;37.40;;;;;;;3.17;80.84;103173.63;5085462;28;20688;-89
2022/01/26 08:38:54;;;;;;;121.15;35.20;;;;;;;3.22;80.69;103166.81;5081187;28;20111;-89
2022/01/26 08:41:20;;;;;;;140.48;38.88;;;;;;;3.24;80.68;103175.56;5083915;28;20070;-89
2022/01/26 08:43:45;;;;;;;142.05;44.60;;;;;;;3.14;81.32;103164.81;5078004;28;20673;-89
2022/01/26 08:46:10;;;;;;;121.32;34.58;;;;;;;3.21;81.25;103177.19;5074854;28;20380;-89
2022/01/26 08:48:36;;;;;;;122.55;36.40;;;;;;;3.28;80.99;103193.09;5080798;28;20028;-89
2022/01/26 08:51:01;;;;;;;134.02;41.28;;;;;;;3.26;80.83;103181.72;5081459;28;20024;-89
2022/01/26 08:53:26;;;;;;;99.88;32.10;;;;;;;3.29;80.68;103183.53;5082498;28;20035;-89
2022/01/26 08:55:52;;;;;;;118.88;33.95;;;;;;;3.22;80.86;103182.47;5084190;28;20024;-89
2022/01/26 08:58:18;;;;;;;133.15;38.53;;;;;;;3.28;80.98;103189.59;5086796;28;20039;-90
2022/01/26 09:00:44;;;;;;;115.95;36.85;;;;;;;3.33;81.10;103204.56;5077372;28;20561;-89
2022/01/26 09:03:10;;;;;;;126.75;39.92;;;;;;;3.32;81.03;103186.22;5083428;28;20027;-90
2022/01/26 09:05:35;;;;;;;145.65;42.10;;;;;;;3.23;82.02;103172.91;5085311;28;20373;-89
2022/01/26 09:08:02;;;;;;;137.15;41.35;;;;;;;3.14;82.27;103175.25;5085620;28;20039;-89
2022/01/26 09:10:29;;;;;;;131.98;39.72;;;;;;;3.23;82.16;103180.75;5083754;28;20089;-89
2022/01/26 09:12:55;;;;;;;146.63;42.15;;;;;;;3.25;81.94;103173.81;5086776;28;20506;-89
2022/01/26 09:15:27;;;;;;;146.68;43.88;;;;;;;3.23;82.33;103170.28;5077801;28;20028;-89
2022/01/26 09:17:54;;;;;;;131.13;42.95;;;;;;;3.24;81.74;103172.06;5088066;28;20031;-89
2022/01/26 09:20:19;;;;;;;123.03;37.72;;;;;;;3.27;82.33;103180.00;5085029;28;20032;-89
2022/01/26 09:22:44;;;;;;;114.80;32.60;;;;;;;3.32;82.07;103181.00;5082923;28;20028;-89
2022/01/26 09:25:10;;;;;;;130.23;39.83;;;;;;;3.33;82.24;103183.66;5079856;28;20038;-89
2022/01/26 09:27:36;;;;;;;107.95;33.90;;;;;;;3.36;81.62;103187.19;5083652;28;20089;-90
2022/01/26 09:30:03;;;;;;;118.95;37.60;;;;;;;3.44;81.83;103191.78;5082455;28;20060;-90
2022/01/26 09:32:28;;;;;;;132.77;40.53;;;;;;;3.42;81.39;103193.47;5085531;28;20360;-89
2022/01/26 09:34:53;;;;;;;128.38;41.60;;;;;;;3.40;81.75;103195.16;5083097;28;20034;-89
2022/01/26 09:37:19;;;;;;;131.60;43.30;;;;;;;3.41;81.57;103196.94;5081601;28;20047;-90
2022/01/26 09:39:46;;;;;;;107.28;30.73;;;;;;;3.41;81.47;103183.88;5082083;28;20094;-89
2022/01/26 09:42:12;;;;;;;101.57;32.05;;;;;;;3.50;81.54;103188.47;5070637;28;20055;-90
2022/01/26 09:44:38;;;;;;;92.97;32.03;;;;;;;3.57;81.15;103190.38;5082224;28;20028;-89
2022/01/26 09:47:04;;;;;;;97.10;31.40;;;;;;;3.57;80.98;103172.97;5081442;28;20028;-89
2022/01/26 09:49:34;;;;;;;122.10;42.13;;;;;;;3.57;81.30;103172.06;5084058;28;20028;-89
2022/01/26 09:52:05;;;;;;;102.93;31.85;;;;;;;3.60;80.66;103155.59;5090152;28;20031;-90
2022/01/26 09:54:30;;;;;;;107.18;32.35;;;;;;;3.60;80.70;103155.59;5082580;28;20480;-89
2022/01/26 09:57:01;;;;;;;105.90;36.65;;;;;;;3.51;81.13;103164.97;5079723;28;20042;-90
2022/01/26 09:59:28;;;;;;;114.10;37.15;;;;;;;3.53;81.64;103165.00;5083644;28;20024;-90
2022/01/26 10:01:53;;;;;;;121.95;41.85;;;;;;;3.54;81.46;103159.81;5083455;28;20020;-89
2022/01/26 10:04:33;;;;;;;102.35;33.97;;;;;;;3.61;81.24;103160.84;5084031;28;20032;-89
2022/01/26 10:07:05;;;;;;;122.13;44.85;;;;;;;3.54;81.32;103165.06;5077254;28;20520;-89
2022/01/26 10:17:45;;;;;;;96.50;30.17;;;;;;;3.78;80.02;103161.28;5077474;28;20075;-90
2022/01/26 10:20:15;;;;;;;99.00;33.25;;;;;;;3.87;79.88;103165.84;5073268;28;20569;-89
2022/01/26 10:22:41;;;;;;;105.63;38.63;;;;;;;3.82;79.92;103155.25;5079103;28;20025;-89
2022/01/26 10:25:13;;;;;;;96.95;33.30;;;;;;;3.92;79.92;103159.03;5075454;28;20036;-89
2022/01/26 10:27:44;;;;;;;106.85;40.22;;;;;;;3.82;79.91;103158.78;5072321;28;20028;-89
2022/01/26 10:30:15;;;;;;;107.87;39.70;;;;;;;3.86;80.04;103153.63;5085291;28;20044;-89
2022/01/26 10:32:42;;;;;;;56.33;20.60;;;;;;;3.82;79.80;103142.19;5072365;28;20526;-89
2022/01/26 10:35:08;;;;;;;88.80;29.65;;;;;;;3.94;79.09;103152.09;5077254;28;20056;-90
2022/01/26 10:37:34;;;;;;;52.03;19.70;;;;;;;3.93;79.01;103156.44;5078392;28;20369;-89
2022/01/26 10:40:15;;;;;;;66.97;25.90;;;;;;;4.03;79.06;103181.09;5085821;28;20049;-89
2022/01/26 10:42:54;;;;;;;83.90;29.08;;;;;;;3.96;79.06;103192.25;5082621;28;20020;-89
2022/01/26 10:45:35;;;;;;;74.63;25.40;;;;;;;4.00;78.56;103205.44;5080410;28;20433;-89
2022/01/26 10:48:15;;;;;;;81.18;27.75;;;;;;;4.01;78.87;103201.09;5079008;28;20447;-89
2022/01/26 10:53:11;;;;;;;52.92;19.40;;;;;;;4.18;78.47;103204.13;5076924;28;20058;-89
2022/01/26 10:55:38;;;;;;;75.00;31.88;;;;;;;4.08;78.54;103208.25;5073049;28;20081;-89
2022/01/26 10:58:06;;;;;;;80.70;30.00;;;;;;;3.95;78.69;103195.72;5076569;28;20438;-89
2022/01/26 11:00:36;;;;;;;76.93;26.45;;;;;;;4.05;78.64;103206.44;5077504;28;20503;-89
2022/01/26 11:03:01;;;;;;;83.35;31.00;;;;;;;4.04;78.62;103191.59;5077202;28;20039;-89
2022/01/26 11:05:26;;;;;;;87.50;35.90;;;;;;;3.98;79.53;103180.09;5081543;28;20024;-89
2022/01/26 11:07:52;;;;;;;77.47;31.67;;;;;;;4.08;79.72;103193.44;5076861;28;20039;-89
2022/01/26 11:10:18;;;;;;;85.68;35.17;;;;;;;4.01;79.17;103177.53;5076394;28;20129;-90
2022/01/26 11:12:43;;;;;;;79.13;31.08;;;;;;;4.08;79.56;103189.94;5073610;28;20028;-90
2022/01/26 11:15:10;;;;;;;78.45;30.40;;;;;;;4.06;79.21;103189.03;5080345;28;20102;-89
2022/01/26 11:17:39;;;;;;;76.40;28.90;;;;;;;4.08;79.56;103175.13;5077032;28;20043;-89
2022/01/26 11:20:19;;;;;;;73.72;28.02;;;;;;;4.20;79.38;103192.00;5076631;28;20032;-89
2022/01/26 11:22:50;;;;;;;91.53;35.00;;;;;;;4.04;79.88;103180.25;5070737;28;20460;-90
2022/01/26 11:25:16;;;;;;;89.43;33.72;;;;;;;3.94;80.42;103167.78;5076967;28;20032;-90
2022/01/26 11:27:41;;;;;;;68.20;26.80;;;;;;;4.02;80.04;103161.91;5076805;28;20085;-89
2022/01/26 11:30:20;;;;;;;68.50;25.40;;;;;;;4.12;79.67;103178.69;5074351;28;20047;-90
2022/01/26 11:32:57;;;;;;;73.68;29.95;;;;;;;4.11;79.85;103176.06;5081541;28;20023;-89
2022/01/26 11:35:25;;;;;;;72.30;25.05;;;;;;;4.05;80.45;103168.91;5072406;28;20028;-90
2022/01/26 11:38:28;;;;;;;91.80;34.25;;;;;;;4.01;80.49;103162.75;5067560;28;20063;-90
2022/01/26 11:46:30;;;;;;;77.28;29.15;;;;;;;4.05;80.33;103148.84;5079852;28;20046;-89
2022/01/26 11:49:05;;;;;;;91.88;37.85;;;;;;;3.96;80.45;103145.13;5075532;28;20035;-90
2022/01/26 11:51:39;;;;;;;77.10;29.33;;;;;;;4.04;80.41;103147.09;5078985;28;20033;-90
2022/01/26 11:54:14;;;;;;;83.25;28.45;;;;;;;4.13;80.08;103156.03;5076027;28;20440;-90
2022/01/26 11:56:40;;;;;;;89.13;35.70;;;;;;;4.08;79.95;103155.91;5074383;28;20044;-89
2022/01/26 11:59:17;;;;;;;72.60;26.13;;;;;;;4.18;79.86;103136.06;5076808;28;20078;-89
2022/01/26 12:01:45;;;;;;;93.30;31.10;;;;;;;4.11;79.99;103131.56;5078519;28;20028;-90
2022/01/26 12:04:16;;;;;;;82.20;30.50;;;;;;;4.14;80.03;103129.00;5075338;28;20036;-89
2022/01/26 12:06:48;;;;;;;97.57;34.55;;;;;;;4.09;79.60;103124.53;5075275;28;20020;-90
2022/01/26 12:09:13;;;;;;;;;;;;;;;4.23;79.68;103132.69;5078310;28;20075;-90
2022/01/26 12:11:39;;;;;;;74.50;25.63;;;;;;;4.25;79.56;103128.41;5078201;28;19919;-89
2022/01/26 12:14:12;;;;;;;92.30;31.73;;;;;;;4.23;79.85;103121.34;5081018;28;20046;-89
2022/01/26 12:16:42;;;;;;;87.60;37.33;;;;;;;4.28;79.78;103136.31;5070830;28;20500;-89
2022/01/26 12:35:49;;;;;;;88.82;31.50;;;;;;;4.46;79.40;103130.59;5076756;28;20131;-90
2022/01/26 12:38:45;;;;;;;100.95;41.55;;;;;;;4.39;79.40;103133.06;5079069;28;20455;-90
2022/01/26 12:41:29;;;;;;;71.35;31.23;;;;;;;4.39;78.90;103131.34;5080696;28;20039;-90
2022/01/26 12:44:17;;;;;;;85.38;29.95;;;;;;;4.43;78.49;103127.94;5075131;28;20035;-90
2022/01/26 12:46:43;;;;;;;73.65;27.13;;;;;;;4.48;78.49;103125.41;5074037;28;20183;-90
2022/01/26 12:49:13;;;;;;;81.75;31.98;;;;;;;4.46;78.85;103134.97;5076732;28;20095;-90
2022/01/26 12:51:40;;;;;;;70.25;27.98;;;;;;;4.52;78.70;103138.63;5072720;28;20032;-90
2022/01/26 12:54:06;;;;;;;55.95;20.80;;;;;;;4.61;78.07;103128.31;5067581;28;20526;-90
2022/01/26 12:56:32;;;;;;;81.45;31.40;;;;;;;4.53;78.12;103131.63;5077635;28;20052;-90
2022/01/26 12:59:02;;;;;;;80.30;30.52;;;;;;;4.43;78.95;103132.25;5076453;28;20076;-90
2022/01/26 13:01:28;;;;;;;78.38;29.23;;;;;;;4.56;78.39;103121.19;5075554;28;20034;-90
2022/01/26 13:03:59;;;;;;;91.55;38.67;;;;;;;4.49;78.77;103124.56;5071917;28;20503;-90
2022/01/26 13:06:28;;;;;;;86.80;34.05;;;;;;;4.52;78.76;103122.91;5069089;28;20356;-90
2022/01/26 13:08:58;;;;;;;86.72;34.67;;;;;;;4.70;78.69;103122.38;5070592;28;20031;-90
2022/01/26 13:11:32;;;;;;;61.03;23.65;;;;;;;4.65;78.03;103110.03;5070600;28;20575;-90
2022/01/26 13:14:41;;;;;;;82.85;32.53;;;;;;;4.70;78.36;103105.78;5074456;28;20032;-90
2022/01/26 13:30:12;;;;;;;75.13;26.88;;;;;;;4.81;77.51;103088.56;5076202;28;20044;-90
2022/01/26 13:33:36;;;;;;;69.22;26.98;;;;;;;4.93;77.20;103093.13;5072581;28;20543;-90
2022/01/26 13:38:10;;;;;;;72.57;29.25;;;;;;;4.99;77.00;103091.53;5079236;28;20087;-90
2022/01/26 13:51:47;;;;;;;86.28;35.03;;;;;;;4.71;77.72;103076.09;5098963;28;20028;-90